createdAt,value
2023-02-11T00:01:45.802Z,-2.22
2023-02-11T00:04:16.031Z,-2.16
2023-02-11T00:06:45.365Z,-2.09
2023-02-11T00:09:11.981Z,-2.10
2023-02-11T00:11:40.797Z,-2.39
2023-02-11T00:14:13.233Z,-2.22
2023-02-11T00:16:42.236Z,-2.43
2023-02-11T00:19:09.936Z,-2.23
2023-02-11T00:21:36.812Z,-2.42
2023-02-11T00:24:03.797Z,-2.28
2023-02-11T00:26:33.142Z,-2.27
2023-02-11T00:29:02.637Z,-2.18
2023-02-11T00:31:32.614Z,-2.09
2023-02-11T00:33:59.404Z,-2.17
2023-02-11T00:36:29.011Z,-2.32
2023-02-11T00:38:56.795Z,-2.32
2023-02-11T00:41:23.947Z,-2.27
2023-02-11T00:43:54.049Z,-2.16
2023-02-11T00:46:21.693Z,-2.17
2023-02-11T00:48:48.723Z,-2.05
2023-02-11T00:51:15.399Z,-2.06
2023-02-11T00:53:44.619Z,-1.99
2023-02-11T00:56:13.587Z,-1.96
2023-02-11T00:58:42.856Z,-1.92
2023-02-11T01:01:12.775Z,-1.78
2023-02-11T01:03:44.171Z,-1.77
2023-02-11T01:06:11.370Z,-1.68
2023-02-11T01:08:38.768Z,-1.71
2023-02-11T01:11:14.773Z,-1.66
2023-02-11T01:13:42.278Z,-1.62
2023-02-11T01:16:10.913Z,-1.58
2023-02-11T01:18:41.923Z,-1.62
2023-02-11T01:21:08.548Z,-1.76
2023-02-11T01:23:35.166Z,-1.54
2023-02-11T01:26:05.004Z,-1.43
2023-02-11T01:28:34.715Z,-1.49
2023-02-11T01:31:03.183Z,-1.46
2023-02-11T01:33:32.446Z,-1.53
2023-02-11T01:36:08.840Z,-1.42
2023-02-11T01:38:35.845Z,-1.35
2023-02-11T01:41:09.240Z,-1.34
2023-02-11T01:43:40.792Z,-1.44
2023-02-11T01:46:14.469Z,-1.36
2023-02-11T01:48:45.936Z,-1.18
2023-02-11T01:51:21.139Z,-1.06
2023-02-11T01:54:08.518Z,-1.05
2023-02-11T01:56:57.197Z,-0.94
2023-02-11T01:59:53.122Z,-0.96
2023-02-11T02:02:24.020Z,-1.02
2023-02-11T02:04:57.558Z,-0.96
2023-02-11T02:07:44.195Z,-1.00
2023-02-11T02:10:19.603Z,-1.05
2023-02-11T02:12:46.490Z,-0.73
2023-02-11T02:15:25.802Z,-0.66
2023-02-11T02:18:01.372Z,-0.69
2023-02-11T02:20:27.889Z,-0.83
2023-02-11T02:23:03.426Z,-1.02
2023-02-11T02:25:52.350Z,-1.43
2023-02-11T02:28:21.982Z,-1.42
2023-02-11T02:31:07.484Z,-1.23
2023-02-11T02:33:38.438Z,-1.29
2023-02-11T02:36:09.162Z,-1.39
2023-02-11T02:38:40.994Z,-1.43
2023-02-11T02:41:35.003Z,-1.80
2023-02-11T02:44:01.984Z,-1.80
2023-02-11T02:46:32.840Z,-1.78
2023-02-11T02:49:00.318Z,-1.82
2023-02-11T02:51:57.803Z,-1.59
2023-02-11T02:55:06.330Z,-1.90
2023-02-11T02:57:51.881Z,-2.06
2023-02-11T03:00:46.588Z,-2.01
2023-02-11T03:03:16.126Z,-1.81
2023-02-11T03:06:01.433Z,-1.71
2023-02-11T03:08:36.789Z,-1.72
2023-02-11T03:11:05.533Z,-1.89
2023-02-11T03:13:35.259Z,-1.88
2023-02-11T03:16:09.097Z,-2.07
2023-02-11T03:18:37.387Z,-2.39
2023-02-11T03:21:08.312Z,-2.08
2023-02-11T03:23:49.988Z,-1.97
2023-02-11T03:26:36.339Z,-1.99
2023-02-11T03:29:20.973Z,-2.22
2023-02-11T03:31:54.713Z,-1.99
2023-02-11T03:34:44.956Z,-2.47
2023-02-11T03:37:21.398Z,-2.53
2023-02-11T03:39:57.142Z,-2.44
2023-02-11T03:42:26.562Z,-2.30
2023-02-11T03:44:59.897Z,-2.30
2023-02-11T03:47:29.841Z,-2.52
2023-02-11T03:49:59.395Z,-2.42
2023-02-11T03:52:32.286Z,-2.24
2023-02-11T03:55:02.012Z,-2.27
2023-02-11T03:57:28.859Z,-2.39
2023-02-11T03:59:57.427Z,-2.23
2023-02-11T04:02:29.409Z,-2.17
2023-02-11T04:04:56.315Z,-2.16
2023-02-11T04:07:25.755Z,-2.30
2023-02-11T04:09:58.070Z,-2.53
2023-02-11T04:12:24.966Z,-2.41
2023-02-11T04:14:51.661Z,-2.31
2023-02-11T04:17:18.572Z,-2.31
2023-02-11T04:19:47.396Z,-2.23
2023-02-11T04:22:14.226Z,-2.59
2023-02-11T04:24:40.820Z,-2.70
2023-02-11T04:27:07.623Z,-2.79
2023-02-11T04:29:34.350Z,-2.71
2023-02-11T04:32:01.069Z,-2.93
2023-02-11T04:34:30.508Z,-2.78
2023-02-11T04:36:59.913Z,-2.81
2023-02-11T04:39:31.375Z,-2.91
2023-02-11T04:42:00.485Z,-2.90
2023-02-11T04:44:29.364Z,-2.93
2023-02-11T04:46:58.707Z,-3.24
2023-02-11T04:49:25.725Z,-3.11
2023-02-11T04:51:52.347Z,-2.92
2023-02-11T04:54:19.166Z,-3.37
2023-02-11T04:56:46.008Z,-3.43
2023-02-11T04:59:13.507Z,-3.54
2023-02-11T05:01:41.064Z,-3.22
2023-02-11T05:04:07.914Z,-3.03
2023-02-11T05:06:36.959Z,-3.49
2023-02-11T05:09:03.696Z,-3.34
2023-02-11T05:11:30.453Z,-3.32
2023-02-11T05:13:57.104Z,-3.55
2023-02-11T05:16:28.614Z,-3.35
2023-02-11T05:18:58.463Z,-3.17
2023-02-11T05:21:25.174Z,-3.21
2023-02-11T05:23:54.978Z,-3.07
2023-02-11T05:26:23.957Z,-3.04
2023-02-11T05:28:52.841Z,-2.97
2023-02-11T05:31:19.679Z,-3.08
2023-02-11T05:33:53.670Z,-3.39
2023-02-11T05:36:24.089Z,-3.15
2023-02-11T05:38:51.004Z,-3.10
2023-02-11T05:41:17.589Z,-3.00
2023-02-11T05:43:47.782Z,-2.93
2023-02-11T05:46:14.443Z,-3.03
2023-02-11T05:48:41.032Z,-3.29
2023-02-11T05:51:07.580Z,-3.62
2023-02-11T05:53:34.506Z,-3.55
2023-02-11T05:56:01.447Z,-3.65
2023-02-11T05:58:28.294Z,-3.35
2023-02-11T06:00:54.875Z,-3.19
2023-02-11T06:03:21.572Z,-3.21
2023-02-11T06:05:48.486Z,-3.28
2023-02-11T06:08:15.276Z,-3.07
2023-02-11T06:10:47.022Z,-3.07
2023-02-11T06:13:18.649Z,-3.06
2023-02-11T06:15:47.882Z,-3.51
2023-02-11T06:18:14.569Z,-3.23
2023-02-11T06:20:46.063Z,-2.94
2023-02-11T06:23:14.956Z,-2.81
2023-02-11T06:25:43.848Z,-2.92
2023-02-11T06:28:10.837Z,-2.85
2023-02-11T06:30:38.326Z,-2.79
2023-02-11T06:33:05.662Z,-2.93
2023-02-11T06:35:33.508Z,-3.28
2023-02-11T06:38:00.216Z,-3.04
2023-02-11T06:40:27.004Z,-2.80
2023-02-11T06:42:53.818Z,-2.59
2023-02-11T06:45:22.809Z,-2.66
2023-02-11T06:47:56.824Z,-2.52
2023-02-11T06:50:25.767Z,-2.75
2023-02-11T06:52:54.585Z,-2.36
2023-02-11T06:55:21.182Z,-2.13
2023-02-11T06:57:50.150Z,-2.02
2023-02-11T07:00:17.251Z,-1.82
2023-02-11T07:02:46.169Z,-2.13
2023-02-11T07:05:15.061Z,-2.10
2023-02-11T07:07:41.661Z,-1.96
2023-02-11T07:10:08.520Z,-1.94
2023-02-11T07:12:37.713Z,-2.02
2023-02-11T07:15:06.027Z,-1.88
2023-02-11T07:17:35.169Z,-1.79
2023-02-11T07:20:01.976Z,-1.53
2023-02-11T07:22:30.858Z,-1.65
2023-02-11T07:24:57.455Z,-1.68
2023-02-11T07:27:24.110Z,-1.69
2023-02-11T07:29:50.700Z,-1.48
2023-02-11T07:32:17.458Z,-1.37
2023-02-11T07:34:49.638Z,-1.26
2023-02-11T07:37:18.664Z,-1.17
2023-02-11T07:39:45.321Z,-0.80
2023-02-11T07:42:11.982Z,-0.44
2023-02-11T07:44:43.406Z,-0.15
2023-02-11T07:47:10.166Z,0.33
2023-02-11T07:49:39.027Z,0.60
2023-02-11T07:52:05.631Z,0.87
2023-02-11T07:54:34.702Z,0.90
2023-02-11T07:57:03.489Z,0.97
2023-02-11T07:59:30.182Z,0.94
2023-02-11T08:01:56.753Z,1.06
2023-02-11T08:04:26.415Z,1.07
2023-02-11T08:06:58.989Z,1.06
2023-02-11T08:09:26.189Z,1.06
2023-02-11T08:11:52.852Z,1.26
2023-02-11T08:14:21.666Z,1.27
2023-02-11T08:16:53.091Z,1.34
2023-02-11T08:19:22.268Z,1.39
2023-02-11T08:21:48.885Z,1.51
2023-02-11T08:24:15.784Z,1.64
2023-02-11T08:26:42.890Z,1.77
2023-02-11T08:29:14.309Z,1.80
2023-02-11T08:31:43.860Z,1.99
2023-02-11T08:34:11.773Z,1.87
2023-02-11T08:36:40.551Z,1.85
2023-02-11T08:39:21.128Z,1.86
2023-02-11T08:41:52.861Z,2.11
2023-02-11T08:44:25.496Z,2.02
2023-02-11T08:46:54.683Z,1.95
2023-02-11T08:49:25.905Z,1.86
2023-02-11T08:51:56.260Z,1.89
2023-02-11T08:54:22.894Z,1.88
2023-02-11T08:56:54.184Z,1.81
2023-02-11T08:59:20.827Z,1.83
2023-02-11T09:01:47.816Z,1.82
2023-02-11T09:04:14.531Z,1.81
2023-02-11T09:06:41.205Z,1.86
2023-02-11T09:09:13.702Z,1.84
2023-02-11T09:11:41.613Z,1.80
2023-02-11T09:14:08.206Z,1.86
2023-02-11T09:16:36.275Z,2.01
2023-02-11T09:19:05.029Z,2.10
2023-02-11T09:21:32.195Z,2.18
2023-02-11T09:23:58.926Z,2.12
2023-02-11T09:26:31.155Z,2.31
2023-02-11T09:29:00.796Z,2.41
2023-02-11T09:31:29.723Z,2.67
2023-02-11T09:34:00.521Z,2.87
2023-02-11T09:36:32.401Z,2.75
2023-02-11T09:39:03.474Z,2.90
2023-02-11T09:41:55.647Z,2.96
2023-02-11T09:44:28.781Z,3.02
2023-02-11T09:47:05.160Z,3.49
2023-02-11T09:49:41.052Z,3.18
2023-02-11T09:52:13.686Z,3.35
2023-02-11T09:54:55.678Z,3.36
2023-02-11T09:57:29.155Z,3.39
2023-02-11T10:00:01.728Z,3.53
2023-02-11T10:02:32.450Z,3.51
2023-02-11T10:05:17.058Z,3.62
2023-02-11T10:07:57.067Z,3.63
2023-02-11T10:10:42.020Z,3.75
2023-02-11T10:13:20.724Z,3.79
2023-02-11T10:16:16.692Z,4.03
2023-02-11T10:19:39.405Z,4.18
2023-02-11T10:22:25.461Z,4.30
2023-02-11T10:25:00.284Z,4.15
2023-02-11T10:27:36.011Z,4.32
2023-02-11T10:30:23.675Z,4.45
2023-02-11T10:33:19.086Z,4.55
2023-02-11T10:35:45.775Z,4.49
2023-02-11T10:38:12.803Z,4.48
2023-02-11T10:40:42.106Z,4.79
2023-02-11T10:43:16.254Z,4.92
2023-02-11T10:45:48.647Z,4.62
2023-02-11T10:48:43.460Z,4.37
2023-02-11T10:51:14.569Z,4.49
2023-02-11T10:53:44.744Z,4.51
2023-02-11T10:56:28.001Z,4.71
2023-02-11T10:59:07.377Z,4.74
2023-02-11T11:01:50.859Z,4.80
2023-02-11T11:04:32.214Z,4.91
2023-02-11T11:07:24.984Z,5.14
2023-02-11T11:09:59.686Z,5.02
2023-02-11T11:12:30.178Z,5.34
2023-02-11T11:15:21.830Z,5.43
2023-02-11T11:18:21.230Z,5.52
2023-02-11T11:21:09.975Z,5.34
2023-02-11T11:23:37.843Z,5.26
2023-02-11T11:26:11.719Z,5.29
2023-02-11T11:29:01.365Z,5.29
2023-02-11T11:31:31.059Z,5.27
2023-02-11T11:34:05.064Z,5.40
2023-02-11T11:36:41.021Z,5.49
2023-02-11T11:39:30.190Z,5.82
2023-02-11T11:42:03.378Z,6.04
2023-02-11T11:44:36.252Z,6.39
2023-02-11T11:47:23.122Z,6.60
2023-02-11T11:49:52.899Z,6.56
2023-02-11T11:52:39.747Z,6.55
2023-02-11T11:55:09.546Z,6.45
2023-02-11T11:57:40.007Z,6.31
2023-02-11T12:00:19.080Z,6.19
2023-02-11T12:03:09.141Z,6.36
2023-02-11T12:05:37.561Z,6.47
2023-02-11T12:08:21.619Z,6.53
2023-02-11T12:11:03.390Z,6.44
2023-02-11T12:14:00.979Z,6.27
2023-02-11T12:16:53.664Z,6.34
2023-02-11T12:19:28.749Z,6.23
2023-02-11T12:22:30.618Z,6.18
2023-02-11T12:25:06.510Z,6.22
2023-02-11T12:28:00.653Z,6.35
2023-02-11T12:30:55.474Z,6.49
2023-02-11T12:34:01.820Z,6.60
2023-02-11T12:36:37.534Z,6.77
2023-02-11T12:39:16.186Z,6.62
2023-02-11T12:42:26.742Z,6.68
2023-02-11T12:45:21.121Z,6.71
2023-02-11T12:48:09.311Z,6.75
2023-02-11T12:50:55.419Z,6.71
2023-02-11T12:53:40.197Z,6.90
2023-02-11T12:56:27.156Z,6.77
2023-02-11T12:59:01.672Z,6.73
2023-02-11T13:01:37.013Z,6.81
2023-02-11T13:04:15.168Z,6.70
2023-02-11T13:06:51.061Z,6.72
2023-02-11T13:09:30.861Z,6.55
2023-02-11T13:12:20.931Z,6.76
2023-02-11T13:14:54.860Z,7.00
2023-02-11T13:17:34.289Z,7.24
2023-02-11T13:20:10.154Z,7.20
2023-02-11T13:23:00.211Z,6.99
2023-02-11T13:25:57.995Z,7.05
2023-02-11T13:28:32.437Z,7.15
2023-02-11T13:31:03.554Z,7.00
2023-02-11T13:33:43.525Z,6.94
2023-02-11T13:36:14.943Z,7.04
2023-02-11T13:38:54.375Z,6.96
2023-02-11T13:41:26.475Z,6.94
2023-02-11T13:44:11.128Z,7.04
2023-02-11T13:46:54.278Z,7.08
2023-02-11T13:49:42.584Z,7.01
2023-02-11T13:52:30.839Z,6.92
2023-02-11T13:55:06.449Z,7.01
2023-02-11T13:57:35.991Z,7.23
2023-02-11T14:00:28.182Z,7.26
2023-02-11T14:03:31.775Z,7.12
2023-02-11T14:06:29.115Z,6.90
2023-02-11T14:09:11.538Z,7.07
2023-02-11T14:11:43.432Z,6.96
2023-02-11T14:14:30.714Z,7.05
2023-02-11T14:17:01.005Z,7.22
2023-02-11T14:19:38.776Z,7.22
2023-02-11T14:22:17.458Z,7.11
2023-02-11T14:25:05.885Z,6.88
2023-02-11T14:27:49.080Z,6.82
2023-02-11T14:30:25.328Z,6.85
2023-02-11T14:33:00.194Z,6.92
2023-02-11T14:35:49.983Z,6.77
2023-02-11T14:38:42.493Z,7.02
2023-02-11T14:41:30.810Z,6.82
2023-02-11T14:44:30.330Z,6.77
2023-02-11T14:46:57.307Z,6.86
2023-02-11T14:49:35.762Z,6.98
2023-02-11T14:52:29.888Z,7.12
2023-02-11T14:55:13.573Z,7.23
2023-02-11T14:57:42.259Z,6.79
2023-02-11T15:00:21.708Z,6.91
2023-02-11T15:02:48.519Z,6.94
2023-02-11T15:05:17.822Z,7.02
2023-02-11T15:07:45.819Z,6.89
2023-02-11T15:10:47.486Z,6.76
2023-02-11T15:13:21.723Z,6.71
2023-02-11T15:15:52.341Z,6.82
2023-02-11T15:18:30.226Z,6.62
2023-02-11T15:20:57.373Z,6.61
2023-02-11T15:23:28.560Z,6.61
2023-02-11T15:25:58.103Z,6.39
2023-02-11T15:28:33.409Z,6.31
2023-02-11T15:31:07.066Z,6.45
2023-02-11T15:33:35.996Z,6.43
2023-02-11T15:36:03.455Z,6.44
2023-02-11T15:38:34.963Z,7.45
2023-02-11T15:41:03.750Z,6.66
2023-02-11T15:43:44.373Z,6.61
2023-02-11T15:46:18.543Z,6.31
2023-02-11T15:48:51.664Z,6.39
2023-02-11T15:51:32.919Z,6.32
2023-02-11T15:54:02.670Z,6.29
2023-02-11T15:56:33.047Z,6.10
2023-02-11T15:59:09.161Z,6.17
2023-02-11T16:01:37.547Z,6.11
2023-02-11T16:04:07.080Z,6.27
2023-02-11T16:06:47.803Z,6.12
2023-02-11T16:09:14.510Z,6.00
2023-02-11T16:11:49.397Z,6.06
2023-02-11T16:14:29.456Z,5.55
2023-02-11T16:17:18.795Z,5.60
2023-02-11T16:19:49.026Z,5.57
2023-02-11T16:22:19.245Z,5.51
2023-02-11T16:24:48.459Z,5.58
2023-02-11T16:27:35.460Z,5.76
2023-02-11T16:30:05.700Z,5.71
2023-02-11T16:32:32.431Z,5.59
2023-02-11T16:35:03.229Z,5.64
2023-02-11T16:37:32.703Z,5.52
2023-02-11T16:40:01.709Z,5.52
2023-02-11T16:42:31.027Z,5.45
2023-02-11T16:45:02.790Z,5.28
2023-02-11T16:47:40.899Z,5.25
2023-02-11T16:50:19.162Z,5.32
2023-02-11T16:52:49.167Z,5.27
2023-02-11T16:55:18.807Z,5.22
2023-02-11T16:57:50.823Z,5.26
2023-02-11T17:00:17.987Z,5.05
2023-02-11T17:02:45.017Z,4.60
2023-02-11T17:05:19.459Z,4.84
2023-02-11T17:07:46.944Z,4.77
2023-02-11T17:10:24.454Z,4.28
2023-02-11T17:12:51.536Z,4.67
2023-02-11T17:15:18.378Z,4.77
2023-02-11T17:17:46.235Z,4.66
2023-02-11T17:20:14.332Z,4.62
2023-02-11T17:22:43.763Z,4.75
2023-02-11T17:25:10.668Z,4.61
2023-02-11T17:27:37.340Z,4.68
2023-02-11T17:30:05.342Z,4.82
2023-02-11T17:32:31.973Z,4.90
2023-02-11T17:34:58.705Z,4.93
2023-02-11T17:37:28.054Z,4.78
2023-02-11T17:39:54.609Z,4.63
2023-02-11T17:42:23.884Z,4.57
2023-02-11T17:44:52.846Z,4.37
2023-02-11T17:47:19.432Z,4.50
2023-02-11T17:49:45.990Z,4.45
2023-02-11T17:52:15.003Z,4.32
2023-02-11T17:54:43.936Z,4.34
2023-02-11T17:57:12.762Z,4.39
2023-02-11T18:06:05.705Z,4.35
2023-02-11T18:08:35.585Z,4.34
2023-02-11T18:11:02.609Z,4.26
2023-02-11T18:13:32.048Z,4.25
2023-02-11T18:19:41.450Z,4.33
2023-02-11T18:22:11.927Z,4.24
2023-02-11T18:24:45.808Z,3.96
2023-02-11T18:31:01.016Z,4.22
2023-02-11T18:33:29.904Z,4.43
2023-02-11T18:39:51.984Z,4.09
2023-02-11T18:42:18.579Z,4.11
2023-02-11T18:48:32.604Z,4.01
2023-02-11T18:51:01.735Z,4.07
2023-02-11T18:53:30.726Z,4.12
2023-02-11T18:55:57.353Z,4.07
2023-02-11T18:58:24.086Z,4.18
2023-02-11T19:00:55.561Z,4.13
2023-02-11T19:03:24.594Z,4.10
2023-02-11T19:05:56.597Z,4.20
2023-02-11T19:08:23.284Z,4.09
2023-02-11T19:10:50.128Z,4.32
2023-02-11T19:13:16.810Z,4.40
2023-02-11T19:15:49.151Z,4.45
2023-02-11T19:18:19.200Z,4.65
2023-02-11T19:20:48.341Z,4.84
2023-02-11T19:23:17.239Z,4.91
2023-02-11T19:26:06.502Z,4.87
2023-02-11T19:28:42.346Z,5.00
2023-02-11T19:31:11.629Z,4.84
2023-02-11T19:33:38.552Z,4.95
2023-02-11T19:36:09.754Z,4.76
2023-02-11T19:38:36.512Z,4.91
2023-02-11T19:41:03.278Z,4.92
2023-02-11T19:43:30.297Z,4.93
2023-02-11T19:46:03.484Z,4.94
2023-02-11T19:48:32.929Z,5.01
2023-02-11T19:51:12.109Z,5.01
2023-02-11T19:53:42.453Z,5.06
2023-02-11T19:56:09.938Z,5.02
2023-02-11T19:58:39.983Z,4.90
2023-02-11T20:01:06.832Z,4.71
2023-02-11T20:03:36.805Z,4.64
2023-02-11T20:06:17.260Z,4.85
2023-02-11T20:08:47.138Z,4.87
2023-02-11T20:11:16.295Z,4.61
2023-02-11T20:13:52.504Z,4.33
2023-02-11T20:16:27.055Z,4.42
2023-02-11T20:19:01.164Z,4.47
2023-02-11T20:21:31.028Z,3.83
2023-02-11T20:24:03.168Z,4.16
2023-02-11T20:26:34.894Z,4.04
2023-02-11T20:29:02.592Z,4.24
2023-02-11T20:31:32.191Z,4.38
2023-02-11T20:34:02.311Z,4.31
2023-02-11T20:36:32.153Z,4.16
2023-02-11T20:39:00.192Z,4.27
2023-02-11T20:41:32.496Z,4.32
2023-02-11T20:44:01.297Z,4.69
2023-02-11T20:46:33.068Z,4.80
2023-02-11T20:49:03.904Z,4.96
2023-02-11T20:51:36.888Z,5.12
2023-02-11T20:54:04.109Z,5.17
2023-02-11T20:56:36.102Z,5.34
2023-02-11T20:59:04.326Z,5.28
2023-02-11T21:01:40.301Z,5.16
2023-02-11T21:04:11.682Z,5.07
2023-02-11T21:06:42.037Z,5.18
2023-02-11T21:09:13.380Z,5.25
2023-02-11T21:11:43.168Z,5.34
2023-02-11T21:14:13.344Z,5.33
2023-02-11T21:16:41.394Z,5.19
2023-02-11T21:19:08.065Z,5.26
2023-02-11T21:21:38.932Z,5.19
2023-02-11T21:24:07.168Z,5.25
2023-02-11T21:26:37.284Z,5.27
2023-02-11T21:29:09.669Z,5.26
2023-02-11T21:31:37.228Z,5.14
2023-02-11T21:34:04.414Z,5.23
2023-02-11T21:36:31.155Z,5.33
2023-02-11T21:39:01.754Z,5.34
2023-02-11T21:41:28.553Z,5.33
2023-02-11T21:43:55.150Z,5.38
2023-02-11T21:46:22.463Z,5.25
2023-02-11T21:48:49.536Z,5.26
2023-02-11T21:51:22.510Z,5.15
2023-02-11T21:53:56.039Z,5.15
2023-02-11T21:56:23.065Z,5.19
2023-02-11T21:58:59.134Z,5.14
2023-02-11T22:01:28.962Z,5.12
2023-02-11T22:03:55.978Z,5.09
2023-02-11T22:06:31.156Z,5.01
2023-02-11T22:09:18.922Z,5.04
2023-02-11T22:11:49.288Z,4.95
2023-02-11T22:14:16.351Z,4.92
2023-02-11T22:16:45.259Z,4.90
2023-02-11T22:19:12.268Z,4.95
2023-02-11T22:21:38.906Z,4.85
2023-02-11T22:24:08.482Z,4.82
2023-02-11T22:26:35.189Z,4.83
2023-02-11T22:29:02.045Z,4.81
2023-02-11T22:31:32.127Z,4.90
2023-02-11T22:34:02.277Z,4.81
2023-02-11T22:36:34.906Z,4.71
2023-02-11T22:39:03.853Z,4.86
2023-02-11T22:41:30.591Z,4.79
2023-02-11T22:43:57.211Z,4.85
2023-02-11T22:46:27.716Z,4.74
2023-02-11T22:48:55.043Z,4.71
2023-02-11T22:51:24.606Z,4.72
2023-02-11T22:53:56.440Z,4.78
2023-02-11T22:56:23.615Z,4.85
2023-02-11T22:58:50.977Z,4.86
2023-02-11T23:01:18.366Z,4.75
2023-02-11T23:03:45.270Z,4.78
2023-02-11T23:06:12.047Z,4.72
2023-02-11T23:08:43.046Z,4.63
2023-02-11T23:11:19.717Z,4.55
2023-02-11T23:13:50.681Z,4.60
2023-02-11T23:16:21.078Z,4.67
2023-02-11T23:18:51.408Z,4.68
2023-02-11T23:21:29.289Z,4.64
2023-02-11T23:24:01.575Z,4.49
2023-02-11T23:26:28.708Z,4.63
2023-02-11T23:28:58.723Z,4.63
2023-02-11T23:31:39.741Z,4.67
2023-02-11T23:34:07.738Z,4.51
2023-02-11T23:36:34.617Z,4.69
2023-02-11T23:39:03.411Z,4.67
2023-02-11T23:41:29.992Z,4.65
2023-02-11T23:44:00.185Z,4.73
2023-02-11T23:46:30.059Z,4.70
2023-02-11T23:48:56.778Z,4.77
2023-02-11T23:51:26.281Z,4.67
2023-02-11T23:53:56.062Z,4.77
2023-02-11T23:56:29.402Z,4.69
2023-02-11T23:58:58.304Z,4.61
